Time;durP1;ratioP1;P1;durP2;ratioP2;P2;SDS_P1;SDS_P2;PMS_P1;PMS_P2;Temp;Humidity;BMP_temperature;BMP_pressure;BME280_temperature;BME280_humidity;BME280_pressure;Samples;Min_cycle;Max_cycle;Signal;HPM_P1;HPM_P2
2024/01/11 00:00:12;;;;;;;;;;;;;;;-4.89;68.45;102740.88;4198182;28;20011;-72
2024/01/11 00:02:13;;;;;;;;;;;;;;;-4.97;68.77;102729.63;4197420;28;20035;-71
2024/01/11 00:04:15;;;;;;;;;;;;;;;-5.01;68.86;102733.22;4198183;28;19970;-71
2024/01/11 00:06:17;;;;;;;;;;;;;;;-5.01;69.07;102726.19;4197232;28;20430;-71
2024/01/11 00:08:22;;;;;;;;;;;;;;;-5.01;69.16;102715.63;4197970;28;20372;-71
2024/01/11 00:10:24;;;;;;;;;;;;;;;-5.01;69.18;102706.88;4204245;28;20048;-71
2024/01/11 00:12:27;;;;;;;;;;;;;;;-5.02;69.07;102708.63;4196982;28;20026;-71
2024/01/11 00:14:29;;;;;;;;;;;;;;;-5.00;69.12;102709.47;4197080;28;20455;-71
2024/01/11 00:16:30;;;;;;;;;;;;;;;-5.00;69.02;102713.84;4197317;28;20470;-72
2024/01/11 00:18:32;;;;;;;;;;;;;;;-5.00;69.22;102720.03;4198017;28;19964;-72
2024/01/11 00:20:34;;;;;;;;;;;;;;;-5.00;69.19;102716.50;4197572;28;20047;-71
2024/01/11 00:22:39;;;;;;;;;;;;;;;-5.00;69.29;102725.28;4196081;28;20396;-71
2024/01/11 00:24:41;;;;;;;;;;;;;;;-4.99;69.40;102734.06;4198115;28;19928;-71
2024/01/11 00:26:45;;;;;;;;;;;;;;;-5.01;69.58;102730.59;4196647;28;20019;-71
2024/01/11 00:28:49;;;;;;;;;;;;;;;-5.01;69.91;102717.41;4204729;28;19925;-71
2024/01/11 00:30:50;;;;;;;;;;;;;;;-5.00;70.04;102712.13;4197166;28;20055;-71
2024/01/11 00:32:54;;;;;;;;;;;;;;;-5.01;70.04;102714.78;4197083;28;20335;-71
2024/01/11 00:34:57;;;;;;;;;;;;;;;-5.01;70.19;102707.72;4196795;28;20008;-71
2024/01/11 00:37:00;;;;;;;;;;;;;;;-4.99;70.14;102708.56;4196884;28;20011;-71
2024/01/11 00:39:02;;;;;;;;;;;;;;;-4.97;70.32;102700.63;4196981;28;20027;-71
2024/01/11 00:41:04;;;;;;;;;;;;;;;-5.01;70.36;102693.69;4196570;28;19975;-72
2024/01/11 00:43:06;;;;;;;;;;;;;;;-5.01;70.62;102697.19;4196051;28;20477;-71
2024/01/11 00:45:08;;;;;;;;;;;;;;;-5.04;70.81;102685.84;4196147;28;20023;-71
2024/01/11 00:47:15;;;;;;;;;;;;;;;-4.99;70.79;102686.63;4195128;28;19974;-72
2024/01/11 00:49:16;;;;;;;;;;;;;;;-4.97;70.83;102679.53;4195353;28;20454;-72
2024/01/11 00:51:21;;;;;;;;;;;;;;;-5.04;70.64;102689.34;4196437;28;20016;-71
2024/01/11 00:53:23;;;;;;;;;;;;;;;-5.03;70.62;102687.56;4196019;28;20463;-71
2024/01/11 00:55:28;;;;;;;;;;;;;;;-5.05;70.66;102669.13;4197460;28;20039;-71
2024/01/11 00:57:32;;;;;;;;;;;;;;;-5.11;71.03;102671.88;4196706;28;20449;-71
2024/01/11 00:59:34;;;;;;;;;;;;;;;-5.11;71.06;102672.78;4197011;28;20015;-71
2024/01/11 01:01:39;;;;;;;;;;;;;;;-5.15;70.88;102654.41;4194762;28;20510;-71
2024/01/11 01:03:41;;;;;;;;;;;;;;;-5.19;71.00;102652.72;4197023;28;20031;-71
2024/01/11 01:05:43;;;;;;;;;;;;;;;-5.19;71.00;102663.25;4195121;28;20461;-72
2024/01/11 01:07:48;;;;;;;;;;;;;;;-5.19;70.83;102648.31;4196550;28;20020;-71
2024/01/11 01:09:51;;;;;;;;;;;;;;;-5.22;70.52;102668.59;4196304;28;19971;-71
2024/01/11 01:11:53;;;;;;;;;;;;;;;-5.20;70.37;102665.03;4195006;28;20019;-71
2024/01/11 01:13:55;;;;;;;;;;;;;;;-5.23;70.24;102661.56;4197036;28;20051;-71
2024/01/11 01:15:57;;;;;;;;;;;;;;;-5.27;70.10;102674.81;4196745;28;20015;-71
2024/01/11 01:18:01;;;;;;;;;;;;;;;-5.25;70.11;102664.22;4196804;28;20023;-71
2024/01/11 01:20:03;;;;;;;;;;;;;;;-5.30;70.08;102630.09;4196647;28;20342;-71
2024/01/11 01:22:05;;;;;;;;;;;;;;;-5.31;70.10;102624.88;4195887;28;20039;-71
2024/01/11 01:24:07;;;;;;;;;;;;;;;-5.32;70.13;102631.00;4196381;28;20020;-71
2024/01/11 01:26:09;;;;;;;;;;;;;;;-5.34;70.30;102648.63;4195359;28;20023;-71
2024/01/11 01:28:11;;;;;;;;;;;;;;;-5.31;70.41;102636.25;4196450;28;20007;-72
2024/01/11 01:30:13;;;;;;;;;;;;;;;-5.30;70.46;102645.00;4197169;28;20368;-71
2024/01/11 01:32:15;;;;;;;;;;;;;;;-5.30;70.53;102642.38;4196354;28;20023;-71
2024/01/11 01:34:18;;;;;;;;;;;;;;;-5.31;70.51;102648.56;4196388;28;20027;-72
2024/01/11 01:36:20;;;;;;;;;;;;;;;-5.31;70.38;102651.22;4196283;28;20366;-71
2024/01/11 01:38:22;;;;;;;;;;;;;;;-5.33;70.30;102639.81;4197119;28;20501;-71
2024/01/11 01:40:24;;;;;;;;;;;;;;;-5.34;70.17;102641.59;4195611;28;20020;-71
2024/01/11 01:42:25;;;;;;;;;;;;;;;-5.35;70.15;102652.16;4195278;28;20337;-71
2024/01/11 01:44:27;;;;;;;;;;;;;;;-5.34;70.25;102649.47;4196908;28;19978;-71
2024/01/11 01:46:28;;;;;;;;;;;;;;;-5.29;70.43;102659.94;4196504;28;20608;-71
2024/01/11 01:48:30;;;;;;;;;;;;;;;-5.30;70.46;102666.09;4196111;28;19963;-71
2024/01/11 01:50:33;;;;;;;;;;;;;;;-5.26;70.66;102657.25;4194730;28;19936;-71
2024/01/11 01:52:35;;;;;;;;;;;;;;;-5.28;70.66;102632.72;4195325;28;20039;-71
2024/01/11 01:54:37;;;;;;;;;;;;;;;-5.29;70.59;102636.22;4196329;28;20087;-71
2024/01/11 01:56:38;;;;;;;;;;;;;;;-5.33;70.57;102640.69;4195494;28;20546;-71
2024/01/11 01:58:41;;;;;;;;;;;;;;;-5.33;70.39;102626.63;4196882;28;20358;-71
2024/01/11 02:00:43;;;;;;;;;;;;;;;-5.39;70.59;102637.28;4195946;28;20020;-71
2024/01/11 02:02:45;;;;;;;;;;;;;;;-5.39;70.71;102634.66;4195931;28;20027;-71
2024/01/11 02:04:47;;;;;;;;;;;;;;;-5.38;70.91;102641.66;4195376;28;20007;-71
2024/01/11 02:06:51;;;;;;;;;;;;;;;-5.36;70.96;102642.50;4196968;28;20019;-71
2024/01/11 02:08:53;;;;;;;;;;;;;;;-5.36;71.04;102660.94;4195881;28;20023;-71
2024/01/11 02:10:54;;;;;;;;;;;;;;;-5.39;71.10;102660.97;4195428;28;19933;-71
2024/01/11 02:12:56;;;;;;;;;;;;;;;-5.43;71.19;102668.94;4193333;28;19963;-71
2024/01/11 02:14:58;;;;;;;;;;;;;;;-5.43;71.36;102673.34;4196723;28;20031;-71
2024/01/11 02:17:02;;;;;;;;;;;;;;;-5.46;71.30;102663.72;4195950;28;20011;-71
2024/01/11 02:19:04;;;;;;;;;;;;;;;-5.46;71.59;102689.19;4195561;28;20433;-71
2024/01/11 02:21:07;;;;;;;;;;;;;;;-5.45;71.65;102698.84;4195332;28;20018;-71
2024/01/11 02:23:12;;;;;;;;;;;;;;;-5.45;71.86;102690.94;4196282;28;20012;-71
2024/01/11 02:25:14;;;;;;;;;;;;;;;-5.45;72.30;102680.41;4196070;28;20019;-71
2024/01/11 02:27:16;;;;;;;;;;;;;;;-5.44;72.47;102677.75;4201793;28;20732;-71
2024/01/11 02:29:19;;;;;;;;;;;;;;;-5.44;72.56;102680.38;4211140;28;20018;-71
2024/01/11 02:31:21;;;;;;;;;;;;;;;-5.43;72.68;102682.09;4195614;28;19970;-71
2024/01/11 02:33:23;;;;;;;;;;;;;;;-5.47;73.08;102671.66;4192476;28;20031;-71
2024/01/11 02:35:25;;;;;;;;;;;;;;;-5.43;73.14;102684.72;4194355;28;20027;-71
2024/01/11 02:37:29;;;;;;;;;;;;;;;-5.43;73.20;102679.47;4195143;28;20032;-71
2024/01/11 02:39:33;;;;;;;;;;;;;;;-5.40;73.28;102683.81;4195019;28;19971;-71
2024/01/11 02:41:37;;;;;;;;;;;;;;;-5.41;73.40;102682.06;4195239;28;20019;-71
2024/01/11 02:43:39;;;;;;;;;;;;;;;-5.40;73.36;102682.97;4194685;28;20027;-71
2024/01/11 02:45:41;;;;;;;;;;;;;;;-5.40;73.70;102696.13;4196036;28;20023;-71
2024/01/11 02:47:42;;;;;;;;;;;;;;;-5.41;73.70;102689.13;4210204;28;20030;-71
2024/01/11 02:49:44;;;;;;;;;;;;;;;-5.43;73.92;102679.47;4195393;28;20008;-71
2024/01/11 02:51:45;;;;;;;;;;;;;;;-5.44;74.13;102666.31;4201736;28;19925;-72
2024/01/11 02:53:47;;;;;;;;;;;;;;;-5.42;74.12;102667.19;4195707;28;19928;-71
2024/01/11 02:55:49;;;;;;;;;;;;;;;-5.41;74.18;102662.78;4193393;28;19964;-71
2024/01/11 02:57:52;;;;;;;;;;;;;;;-5.38;74.34;102647.78;4192862;28;20471;-71
2024/01/11 02:59:54;;;;;;;;;;;;;;;-5.38;74.52;102639.03;4193143;28;20016;-72
2024/01/11 03:01:55;;;;;;;;;;;;;;;-5.39;74.77;102630.28;4194585;28;20372;-72
2024/01/11 03:03:57;;;;;;;;;;;;;;;-5.37;74.94;102617.06;4193512;28;20007;-71
2024/01/11 03:05:59;;;;;;;;;;;;;;;-5.36;74.97;102640.75;4193828;28;20374;-72
2024/01/11 03:08:01;;;;;;;;;;;;;;;-5.33;74.97;102651.22;4194472;28;20374;-72
2024/01/11 03:10:04;;;;;;;;;;;;;;;-5.30;74.94;102650.28;4193840;28;20019;-71
2024/01/11 03:12:06;;;;;;;;;;;;;;;-5.26;74.86;102649.34;4194033;28;19932;-71
2024/01/11 03:14:10;;;;;;;;;;;;;;;-5.22;74.89;102655.41;4195115;28;20015;-71
2024/01/11 03:16:12;;;;;;;;;;;;;;;-5.22;74.84;102648.38;4192499;28;20023;-71
2024/01/11 03:18:14;;;;;;;;;;;;;;;-5.20;74.78;102661.53;4184381;28;20039;-71
2024/01/11 03:20:20;;;;;;;;;;;;;;;-5.19;74.84;102666.75;4194749;28;20027;-72
2024/01/11 03:22:20;;;;;;;;;;;;;;;-5.17;74.88;102670.25;4201502;28;20031;-71
2024/01/11 03:24:23;;;;;;;;;;;;;;;-5.14;75.11;102670.19;4194993;28;20038;-71
2024/01/11 03:26:25;;;;;;;;;;;;;;;-5.11;75.32;102658.72;4194900;28;20031;-71
2024/01/11 03:28:26;;;;;;;;;;;;;;;-5.10;75.35;102645.50;4194162;28;20015;-71
2024/01/11 03:30:29;;;;;;;;;;;;;;;-5.08;75.60;102651.66;4194860;28;20374;-72
2024/01/11 03:32:31;;;;;;;;;;;;;;;-5.05;75.56;102645.44;4193740;28;19925;-71
2024/01/11 03:34:33;;;;;;;;;;;;;;;-5.02;75.42;102649.78;4195023;28;20019;-72
2024/01/11 03:36:34;;;;;;;;;;;;;;;-5.03;75.51;102650.66;4195017;28;20015;-71
2024/01/11 03:38:36;;;;;;;;;;;;;;;-5.00;75.55;102642.69;4194099;28;20015;-72
2024/01/11 03:40:38;;;;;;;;;;;;;;;-4.97;75.55;102643.53;4193720;28;20049;-72
2024/01/11 03:42:40;;;;;;;;;;;;;;;-4.95;75.42;102640.88;4194264;28;20027;-71
2024/01/11 03:44:42;;;;;;;;;;;;;;;-4.94;75.41;102632.94;4194433;28;20458;-71
2024/01/11 03:46:46;;;;;;;;;;;;;;;-4.92;75.41;102633.75;4193676;28;20039;-71
2024/01/11 03:48:48;;;;;;;;;;;;;;;-4.91;75.47;102629.34;4192901;28;20358;-72
2024/01/11 03:50:50;;;;;;;;;;;;;;;-4.91;75.34;102630.22;4192286;28;20011;-71
2024/01/11 03:52:52;;;;;;;;;;;;;;;-4.91;75.35;102613.53;4193255;28;20018;-72
2024/01/11 03:54:54;;;;;;;;;;;;;;;-4.89;75.26;102614.38;4193941;28;20803;-71
2024/01/11 03:56:55;;;;;;;;;;;;;;;-4.89;75.22;102603.81;4192794;28;20032;-71
2024/01/11 03:58:57;;;;;;;;;;;;;;;-4.90;75.28;102597.69;4192907;28;19928;-72
2024/01/11 04:00:59;;;;;;;;;;;;;;;-4.91;75.17;102598.56;4193222;28;20019;-72
2024/01/11 04:03:03;;;;;;;;;;;;;;;-4.89;75.02;102606.44;4193317;28;20014;-72
2024/01/11 04:05:05;;;;;;;;;;;;;;;-4.90;74.90;102623.19;4193532;28;20026;-71
2024/01/11 04:07:07;;;;;;;;;;;;;;;-4.90;74.95;102623.19;4193012;28;19960;-71
2024/01/11 04:09:09;;;;;;;;;;;;;;;-4.89;75.09;102624.91;4194093;28;20011;-71
2024/01/11 04:11:10;;;;;;;;;;;;;;;-4.88;75.17;102614.31;4207560;28;20015;-72
2024/01/11 04:13:12;;;;;;;;;;;;;;;-4.86;75.13;102616.06;4194220;28;20397;-71
2024/01/11 04:15:14;;;;;;;;;;;;;;;-4.85;75.22;102615.19;4194445;28;20363;-72
2024/01/11 04:17:16;;;;;;;;;;;;;;;-4.85;75.28;102618.69;4194014;28;20027;-71
2024/01/11 04:19:19;;;;;;;;;;;;;;;-4.84;75.28;102615.16;4194455;28;20024;-71
2024/01/11 04:21:21;;;;;;;;;;;;;;;-4.82;75.44;102615.97;4194744;28;20027;-71
2024/01/11 04:23:23;;;;;;;;;;;;;;;-4.80;75.35;102618.59;4193883;28;20035;-71
2024/01/11 04:25:25;;;;;;;;;;;;;;;-4.79;75.50;102610.66;4194163;28;20007;-72
2024/01/11 04:27:27;;;;;;;;;;;;;;;-4.79;75.63;102591.34;4193907;28;20031;-72
2024/01/11 04:29:29;;;;;;;;;;;;;;;-4.78;75.76;102596.56;4194898;28;20369;-72
2024/01/11 04:31:31;;;;;;;;;;;;;;;-4.78;75.78;102617.66;4194011;28;20015;-72
2024/01/11 04:33:34;;;;;;;;;;;;;;;-4.78;75.88;102630.84;4195030;28;19929;-71
2024/01/11 04:35:37;;;;;;;;;;;;;;;-4.76;75.94;102633.47;4194945;28;20368;-71
2024/01/11 04:37:39;;;;;;;;;;;;;;;-4.77;76.20;102626.44;4196673;28;20020;-72
2024/01/11 04:39:41;;;;;;;;;;;;;;;-4.75;76.35;102622.00;4196565;28;20023;-71
2024/01/11 04:41:43;;;;;;;;;;;;;;;-4.74;76.60;102623.75;4196893;28;20007;-72
2024/01/11 04:43:45;;;;;;;;;;;;;;;-4.71;76.84;102624.53;4195003;28;20364;-71
2024/01/11 04:45:47;;;;;;;;;;;;;;;-4.69;77.22;102621.00;4193934;28;20020;-71
2024/01/11 04:47:51;;;;;;;;;;;;;;;-4.70;77.62;102630.69;4197904;28;20331;-71
2024/01/11 04:49:52;;;;;;;;;;;;;;;-4.70;77.77;102625.41;4196862;28;20024;-71
2024/01/11 04:51:55;;;;;;;;;;;;;;;-4.69;77.99;102629.78;4197070;28;20462;-71
2024/01/11 04:53:57;;;;;;;;;;;;;;;-4.68;78.32;102623.59;4197027;28;20359;-71
2024/01/11 04:55:59;;;;;;;;;;;;;;;-4.68;78.45;102607.78;4195854;28;20015;-71
2024/01/11 04:58:00;;;;;;;;;;;;;;;-4.67;78.59;102604.25;4197573;28;20019;-71
2024/01/11 05:00:02;;;;;;;;;;;;;;;-4.67;78.78;102593.72;4195785;28;19990;-72
2024/01/11 05:02:05;;;;;;;;;;;;;;;-4.68;79.00;102609.56;4196876;28;20038;-72
2024/01/11 05:04:07;;;;;;;;;;;;;;;-4.67;79.14;102606.00;4196189;28;20015;-71
2024/01/11 05:06:09;;;;;;;;;;;;;;;-4.66;79.33;102578.75;4196175;28;20032;-72
2024/01/11 05:08:12;;;;;;;;;;;;;;;-4.66;79.42;102568.22;4194615;28;20020;-72
2024/01/11 05:10:14;;;;;;;;;;;;;;;-4.65;79.22;102569.97;4193793;28;20019;-72
2024/01/11 05:12:17;;;;;;;;;;;;;;;-4.66;79.68;102579.59;4195134;28;20638;-71
2024/01/11 05:14:19;;;;;;;;;;;;;;;-4.67;79.92;102558.56;4196187;28;19928;-72
2024/01/11 05:16:24;;;;;;;;;;;;;;;-4.67;80.17;102542.72;4193233;28;20032;-71
2024/01/11 05:18:26;;;;;;;;;;;;;;;-4.66;80.37;102573.47;4192587;28;19960;-71
2024/01/11 05:20:29;;;;;;;;;;;;;;;-4.68;80.68;102589.34;4191662;28;20458;-72
2024/01/11 05:22:31;;;;;;;;;;;;;;;-4.68;81.01;102591.97;4194752;28;20058;-71
2024/01/11 05:24:34;;;;;;;;;;;;;;;-4.66;81.11;102594.56;4194972;28;20015;-72
2024/01/11 05:26:36;;;;;;;;;;;;;;;-4.67;81.26;102596.34;4195551;28;20024;-72
2024/01/11 05:28:39;;;;;;;;;;;;;;;-4.67;81.60;102574.38;4193395;28;20011;-72
2024/01/11 05:30:43;;;;;;;;;;;;;;;-4.67;81.76;102572.63;4195334;28;20036;-72
2024/01/11 05:32:45;;;;;;;;;;;;;;;-4.67;81.86;102593.72;4194978;28;20015;-72
2024/01/11 05:34:47;;;;;;;;;;;;;;;-4.65;82.14;102597.19;4196424;28;20015;-71
2024/01/11 05:36:49;;;;;;;;;;;;;;;-4.63;82.38;102597.16;4195897;28;20047;-72
2024/01/11 05:38:51;;;;;;;;;;;;;;;-4.63;82.61;102602.41;4192333;28;20457;-72
2024/01/11 05:40:54;;;;;;;;;;;;;;;-4.60;82.71;102583.91;4195190;28;20023;-72
2024/01/11 05:42:56;;;;;;;;;;;;;;;-4.56;82.87;102588.19;4194817;28;20022;-72
2024/01/11 05:44:58;;;;;;;;;;;;;;;-4.54;82.79;102584.63;4195686;28;20024;-72
2024/01/11 05:47:00;;;;;;;;;;;;;;;-4.52;83.14;102577.53;4194306;28;20466;-72
2024/01/11 05:49:03;;;;;;;;;;;;;;;-4.49;83.08;102573.97;4195286;28;20019;-73
2024/01/11 05:51:05;;;;;;;;;;;;;;;-4.46;83.33;102570.41;4194580;28;20023;-72
2024/01/11 05:53:08;;;;;;;;;;;;;;;-4.44;83.14;102566.81;4195348;28;20027;-72
2024/01/11 05:55:09;;;;;;;;;;;;;;;-4.44;83.28;102561.53;4202970;28;20540;-73
2024/01/11 05:57:12;;;;;;;;;;;;;;;-4.40;83.15;102571.13;4196369;28;19936;-72
2024/01/11 05:59:14;;;;;;;;;;;;;;;-4.39;83.12;102553.50;4195011;28;20010;-73
2024/01/11 06:01:16;;;;;;;;;;;;;;;-4.36;83.30;102548.16;4203309;28;20414;-72
2024/01/11 06:03:17;;;;;;;;;;;;;;;-4.35;83.25;102553.41;4195741;28;20019;-72
2024/01/11 06:05:19;;;;;;;;;;;;;;;-4.33;83.34;102568.34;4211372;28;19987;-72
2024/01/11 06:07:20;;;;;;;;;;;;;;;-4.32;83.44;102578.84;4195179;28;20577;-72
2024/01/11 06:09:22;;;;;;;;;;;;;;;-4.30;83.46;102571.78;4185849;28;19970;-72
2024/01/11 06:11:24;;;;;;;;;;;;;;;-4.28;83.57;102577.91;4194119;28;20023;-72
2024/01/11 06:13:27;;;;;;;;;;;;;;;-4.26;83.91;102591.03;4202034;28;20470;-72
2024/01/11 06:15:29;;;;;;;;;;;;;;;-4.23;84.02;102585.69;4211090;28;19963;-71
2024/01/11 06:17:31;;;;;;;;;;;;;;;-4.22;84.06;102576.88;4194856;28;20378;-72
2024/01/11 06:19:33;;;;;;;;;;;;;;;-4.20;84.04;102568.03;4194230;28;20027;-72
2024/01/11 06:21:35;;;;;;;;;;;;;;;-4.18;84.15;102568.00;4190961;28;20011;-71
2024/01/11 06:23:37;;;;;;;;;;;;;;;-4.17;84.02;102561.78;4193742;28;20026;-71
2024/01/11 06:25:40;;;;;;;;;;;;;;;-4.16;84.23;102564.38;4192693;28;20015;-72
2024/01/11 06:27:42;;;;;;;;;;;;;;;-4.14;84.27;102567.00;4194208;28;20020;-73
2024/01/11 06:29:46;;;;;;;;;;;;;;;-4.12;84.46;102553.75;4193612;28;20011;-72
2024/01/11 06:31:48;;;;;;;;;;;;;;;-4.12;84.57;102559.94;4192910;28;20028;-72
2024/01/11 06:33:50;;;;;;;;;;;;;;;-4.11;84.56;102564.28;4194552;28;20015;-72
2024/01/11 06:35:52;;;;;;;;;;;;;;;-4.08;84.79;102569.47;4192564;28;19925;-72
2024/01/11 06:37:53;;;;;;;;;;;;;;;-4.06;84.72;102561.53;4193729;28;20012;-72
2024/01/11 06:39:55;;;;;;;;;;;;;;;-4.04;84.92;102570.28;4195718;28;20383;-72
2024/01/11 06:41:56;;;;;;;;;;;;;;;-4.02;85.09;102565.84;4192893;28;20019;-72
2024/01/11 06:43:57;;;;;;;;;;;;;;;-4.01;85.07;102573.72;4192799;28;19929;-72
2024/01/11 06:46:04;;;;;;;;;;;;;;;-3.99;84.96;102555.19;4193061;28;20047;-72
2024/01/11 06:48:07;;;;;;;;;;;;;;;-3.98;85.13;102562.22;4194937;28;20338;-72
2024/01/11 06:50:09;;;;;;;;;;;;;;;-3.96;85.33;102555.13;4194704;28;20015;-72
2024/01/11 06:52:10;;;;;;;;;;;;;;;-3.93;85.37;102551.53;4194520;28;20018;-72
2024/01/11 06:54:12;;;;;;;;;;;;;;;-3.91;85.29;102536.53;4194862;28;20035;-72
2024/01/11 06:56:14;;;;;;;;;;;;;;;-3.90;85.41;102543.53;4195581;28;20346;-72
2024/01/11 06:58:16;;;;;;;;;;;;;;;-3.88;85.29;102553.16;4184428;28;20012;-72
2024/01/11 07:00:19;;;;;;;;;;;;;;;-3.86;85.35;102540.75;4194389;28;20011;-72
2024/01/11 07:02:22;;;;;;;;;;;;;;;-3.84;85.64;102538.97;4197079;28;20019;-75
2024/01/11 07:04:24;;;;;;;;;;;;;;;-3.81;85.84;102538.00;4212265;28;19960;-72
2024/01/11 07:06:26;;;;;;;;;;;;;;;-3.80;85.60;102542.41;4194408;28;20015;-72
2024/01/11 07:08:28;;;;;;;;;;;;;;;-3.78;85.44;102543.22;4194206;28;20027;-72
2024/01/11 07:10:30;;;;;;;;;;;;;;;-3.75;85.47;102537.00;4192880;28;20024;-72
2024/01/11 07:12:32;;;;;;;;;;;;;;;-3.73;85.31;102532.53;4193397;28;20369;-72
2024/01/11 07:14:34;;;;;;;;;;;;;;;-3.72;85.50;102536.91;4193931;28;20043;-73
2024/01/11 07:16:36;;;;;;;;;;;;;;;-3.72;85.64;102536.91;4194049;28;19955;-72
2024/01/11 07:18:40;;;;;;;;;;;;;;;-3.69;85.57;102539.47;4193298;28;20030;-73
2024/01/11 07:20:42;;;;;;;;;;;;;;;-3.68;85.60;102544.72;4195112;28;20023;-73
2024/01/11 07:22:44;;;;;;;;;;;;;;;-3.64;85.46;102548.13;4200993;28;19963;-72
2024/01/11 07:24:46;;;;;;;;;;;;;;;-3.64;85.49;102541.09;4194058;28;20008;-72
2024/01/11 07:26:48;;;;;;;;;;;;;;;-3.61;85.72;102537.50;4190274;28;20379;-72
2024/01/11 07:28:49;;;;;;;;;;;;;;;-3.60;85.72;102541.88;4194565;28;20011;-72
2024/01/11 07:30:51;;;;;;;;;;;;;;;-3.57;85.93;102541.78;4193304;28;19947;-72
2024/01/11 07:32:53;;;;;;;;;;;;;;;-3.56;85.62;102527.66;4194780;28;20043;-72
2024/01/11 07:34:57;;;;;;;;;;;;;;;-3.54;85.55;102528.50;4193754;28;20016;-72
2024/01/11 07:36:59;;;;;;;;;;;;;;;-3.51;85.73;102530.19;4208702;28;19924;-72
2024/01/11 07:39:01;;;;;;;;;;;;;;;-3.50;85.90;102540.69;4192678;28;20039;-72
2024/01/11 07:41:02;;;;;;;;;;;;;;;-3.49;85.90;102550.38;4191948;28;20020;-72
2024/01/11 07:43:04;;;;;;;;;;;;;;;-3.47;85.82;102548.53;4192212;28;20450;-72
2024/01/11 07:45:08;;;;;;;;;;;;;;;-3.44;85.78;102552.88;4192261;28;20019;-72
2024/01/11 07:47:11;;;;;;;;;;;;;;;-3.44;85.91;102547.59;4192685;28;20023;-72
2024/01/11 07:49:13;;;;;;;;;;;;;;;-3.43;85.74;102544.06;4193076;28;20019;-72
2024/01/11 07:51:16;;;;;;;;;;;;;;;-3.42;85.64;102543.13;4194018;28;20015;-72
2024/01/11 07:53:18;;;;;;;;;;;;;;;-3.41;85.81;102544.88;4193226;28;20035;-72
2024/01/11 07:55:23;;;;;;;;;;;;;;;-3.39;85.95;102544.84;4195006;28;20023;-72
2024/01/11 07:57:25;;;;;;;;;;;;;;;-3.38;85.65;102550.09;4194482;28;19947;-72
2024/01/11 07:59:27;;;;;;;;;;;;;;;-3.37;85.74;102545.66;4194493;28;19999;-72
2024/01/11 08:01:29;;;;;;;;;;;;;;;-3.35;85.91;102542.06;4194262;28;20059;-72
2024/01/11 08:03:31;;;;;;;;;;;;;;;-3.33;85.89;102529.66;4194698;28;20027;-72
2024/01/11 08:05:33;;;;;;;;;;;;;;;-3.31;85.81;102527.88;4194332;28;20030;-72
2024/01/11 08:07:37;;;;;;;;;;;;;;;-3.29;85.71;102533.97;4184666;28;20023;-72
2024/01/11 08:09:44;;;;;;;;;;;;;;;-3.28;85.94;102533.03;4185122;28;20429;-72
2024/01/11 08:11:47;;;;;;;;;;;;;;;-3.26;85.87;102530.34;4196476;28;20007;-72
2024/01/11 08:13:49;;;;;;;;;;;;;;;-3.26;86.03;102531.25;4196944;28;20019;-72
2024/01/11 08:15:50;;;;;;;;;;;;;;;-3.24;85.97;102532.94;4198193;28;20047;-72
2024/01/11 08:17:52;;;;;;;;;;;;;;;-3.23;85.94;102524.97;4197593;28;19959;-72
2024/01/11 08:19:56;;;;;;;;;;;;;;;-3.22;86.06;102524.09;4197685;28;20361;-73
2024/01/11 08:21:58;;;;;;;;;;;;;;;-3.20;86.01;102522.25;4198116;28;20019;-72
2024/01/11 08:24:02;;;;;;;;;;;;;;;-3.19;85.87;102533.72;4196897;28;20031;-72
2024/01/11 08:26:05;;;;;;;;;;;;;;;-3.18;85.93;102535.41;4197747;28;20027;-74
2024/01/11 08:28:07;;;;;;;;;;;;;;;-3.16;86.05;102533.63;4198052;28;20028;-72
2024/01/11 08:30:09;;;;;;;;;;;;;;;-3.16;85.84;102526.56;4197155;28;20043;-72
2024/01/11 08:32:11;;;;;;;;;;;;;;;-3.14;85.87;102531.78;4196659;28;20015;-73
2024/01/11 08:34:13;;;;;;;;;;;;;;;-3.12;85.90;102528.22;4197382;28;19959;-72
2024/01/11 08:36:15;;;;;;;;;;;;;;;-3.11;85.81;102519.34;4197691;28;20365;-72
2024/01/11 08:38:17;;;;;;;;;;;;;;;-3.09;85.99;102532.53;4196199;28;19924;-73
2024/01/11 08:40:20;;;;;;;;;;;;;;;-3.07;86.10;102528.06;4193770;28;20027;-72
2024/01/11 08:42:21;;;;;;;;;;;;;;;-3.07;86.03;102525.44;4211176;28;20014;-73
2024/01/11 08:44:23;;;;;;;;;;;;;;;-3.05;86.03;102526.25;4196705;28;20015;-72
2024/01/11 08:46:25;;;;;;;;;;;;;;;-3.05;85.90;102512.16;4196838;28;20019;-72
2024/01/11 08:48:28;;;;;;;;;;;;;;;-3.03;85.89;102516.47;4197200;28;20019;-72
2024/01/11 08:50:30;;;;;;;;;;;;;;;-3.01;86.11;102512.03;4196971;28;20019;-72
2024/01/11 08:52:32;;;;;;;;;;;;;;;-2.97;86.08;102523.38;4196355;28;20027;-73
2024/01/11 08:54:34;;;;;;;;;;;;;;;-2.97;86.02;102524.22;4197321;28;20051;-73
2024/01/11 08:56:39;;;;;;;;;;;;;;;-2.95;86.11;102524.19;4196603;28;20015;-73
2024/01/11 08:58:41;;;;;;;;;;;;;;;-2.94;86.14;102515.34;4203672;28;19924;-73
2024/01/11 09:00:43;;;;;;;;;;;;;;;-2.93;85.99;102511.78;4197226;28;20019;-72
2024/01/11 09:02:45;;;;;;;;;;;;;;;-2.92;85.96;102518.81;4196578;28;20367;-72
2024/01/11 09:04:48;;;;;;;;;;;;;;;-2.91;85.57;102502.03;4196485;28;20043;-73
2024/01/11 09:06:50;;;;;;;;;;;;;;;-2.89;85.54;102497.56;4197010;28;20019;-72
2024/01/11 09:08:52;;;;;;;;;;;;;;;-2.87;85.57;102498.38;4204025;28;19971;-72
2024/01/11 09:10:54;;;;;;;;;;;;;;;-2.83;85.72;102483.31;4195855;28;20366;-73
2024/01/11 09:12:57;;;;;;;;;;;;;;;-2.82;85.54;102474.44;4195278;28;20015;-73
2024/01/11 09:14:58;;;;;;;;;;;;;;;-2.79;85.35;102475.22;4197236;28;20027;-73
2024/01/11 09:17:00;;;;;;;;;;;;;;;-2.77;85.07;102475.19;4196946;28;19975;-72
2024/01/11 09:19:02;;;;;;;;;;;;;;;-2.76;85.00;102483.06;4196163;28;19924;-73
2024/01/11 09:21:04;;;;;;;;;;;;;;;-2.74;84.67;102481.22;4193963;28;20384;-73
2024/01/11 09:23:06;;;;;;;;;;;;;;;-2.70;84.64;102476.69;4195923;28;20584;-73
2024/01/11 09:25:08;;;;;;;;;;;;;;;-2.67;84.40;102473.94;4197060;28;20019;-72
2024/01/11 09:27:11;;;;;;;;;;;;;;;-2.66;83.94;102466.91;4195756;28;20019;-73
2024/01/11 09:29:13;;;;;;;;;;;;;;;-2.63;84.29;102475.59;4195595;28;20026;-72
2024/01/11 09:31:15;;;;;;;;;;;;;;;-2.63;83.98;102483.53;4196625;28;20046;-72
2024/01/11 09:33:17;;;;;;;;;;;;;;;-2.61;84.06;102486.13;4195222;28;20015;-72
2024/01/11 09:35:20;;;;;;;;;;;;;;;-2.58;84.10;102483.38;4196512;28;20019;-73
2024/01/11 09:37:22;;;;;;;;;;;;;;;-2.57;84.22;102487.75;4196387;28;20463;-73
2024/01/11 09:39:24;;;;;;;;;;;;;;;-2.56;84.21;102481.56;4195549;28;19964;-72
2024/01/11 09:41:26;;;;;;;;;;;;;;;-2.55;84.22;102492.09;4196346;28;20010;-73
2024/01/11 09:43:28;;;;;;;;;;;;;;;-2.55;84.16;102484.16;4196143;28;20022;-73
2024/01/11 09:45:31;;;;;;;;;;;;;;;-2.51;83.76;102489.34;4195438;28;20028;-72
2024/01/11 09:47:33;;;;;;;;;;;;;;;-2.50;83.61;102484.00;4196256;28;20019;-72
2024/01/11 09:49:34;;;;;;;;;;;;;;;-2.49;83.55;102480.44;4195479;28;20007;-72
2024/01/11 09:51:36;;;;;;;;;;;;;;;-2.47;83.66;102481.25;4196573;28;19925;-72
2024/01/11 09:53:41;;;;;;;;;;;;;;;-2.46;83.94;102490.94;4194996;28;20612;-72
2024/01/11 09:55:46;;;;;;;;;;;;;;;-2.45;83.65;102491.78;4196249;28;20366;-72
2024/01/11 09:57:48;;;;;;;;;;;;;;;-2.44;83.86;102506.75;4195742;28;20015;-73
2024/01/11 09:59:51;;;;;;;;;;;;;;;-2.45;84.14;102508.53;4194730;28;19958;-72
2024/01/11 10:01:58;;;;;;;;;;;;;;;-2.44;84.13;102515.56;4196174;28;20031;-73
2024/01/11 10:04:00;;;;;;;;;;;;;;;-2.42;84.12;102518.16;4195800;28;20429;-72
2024/01/11 10:06:04;;;;;;;;;;;;;;;-2.41;84.22;102518.09;4195938;28;19925;-73
2024/01/11 10:08:06;;;;;;;;;;;;;;;-2.41;84.25;102514.59;4195739;28;20493;-73
2024/01/11 10:10:12;;;;;;;;;;;;;;;-2.42;84.14;102511.06;4194067;28;20007;-73
2024/01/11 10:12:14;;;;;;;;;;;;;;;-2.40;84.07;102516.31;4195844;28;20027;-72
2024/01/11 10:14:16;;;;;;;;;;;;;;;-2.40;83.90;102509.25;4196226;28;20019;-73
2024/01/11 10:16:17;;;;;;;;;;;;;;;-2.39;83.66;102503.03;4195554;28;20012;-73
2024/01/11 10:18:23;;;;;;;;;;;;;;;-2.37;83.45;102501.22;4196560;28;19928;-72
2024/01/11 10:20:25;;;;;;;;;;;;;;;-2.35;83.22;102490.59;4195880;28;20826;-72
2024/01/11 10:22:30;;;;;;;;;;;;;;;-2.32;82.67;102479.00;4194776;28;20023;-72
2024/01/11 10:24:35;;;;;;;;;;;;;;;-2.32;82.29;102476.38;4195285;28;20513;-72
2024/01/11 10:26:41;;;;;;;;;;;;;;;-2.31;82.45;102475.47;4195546;28;20022;-72